Time;durP1;ratioP1;P1;durP2;ratioP2;P2;SDS_P1;SDS_P2;PMS_P1;PMS_P2;Temp;Humidity;BMP_temperature;BMP_pressure;BME280_temperature;BME280_humidity;BME280_pressure;Samples;Min_cycle;Max_cycle;Signal;HPM_P1;HPM_P2
2021/10/22 00:00:57;;;;;;;8.45;3.40;;;17.20;99.90;;;;;;5069184;28;20047;-71
2021/10/22 00:04:01;;;;;;;9.35;3.97;;;17.30;99.90;;;;;;5069864;28;20046;-71
2021/10/22 00:07:05;;;;;;;13.75;5.55;;;17.30;99.90;;;;;;5065009;28;20399;-71
2021/10/22 00:10:10;;;;;;;7.72;4.10;;;17.30;99.90;;;;;;5057955;28;20043;-71
2021/10/22 00:13:14;;;;;;;12.45;4.40;;;17.30;99.90;;;;;;5054189;28;20487;-71
2021/10/22 00:16:18;;;;;;;11.50;4.95;;;17.30;99.90;;;;;;5058193;28;20040;-71
2021/10/22 00:19:22;;;;;;;10.65;4.20;;;17.30;99.90;;;;;;5060278;28;20044;-71
2021/10/22 00:22:26;;;;;;;12.82;4.00;;;17.30;99.90;;;;;;5065355;28;20490;-71
2021/10/22 00:25:31;;;;;;;11.73;3.88;;;17.30;99.90;;;;;;5061844;28;20490;-71
2021/10/22 00:28:35;;;;;;;9.00;4.32;;;17.30;99.90;;;;;;5064880;28;20051;-71
2021/10/22 00:31:39;;;;;;;11.82;3.90;;;17.40;99.90;;;;;;5058767;28;20047;-71
2021/10/22 00:34:43;;;;;;;7.18;3.95;;;17.30;99.90;;;;;;5054536;28;20036;-71
2021/10/22 00:37:47;;;;;;;10.02;4.30;;;17.10;99.90;;;;;;5059884;28;20071;-71
2021/10/22 00:40:52;;;;;;;12.18;3.90;;;17.10;99.90;;;;;;5060683;28;20043;-71
2021/10/22 00:43:56;;;;;;;6.78;4.05;;;17.00;99.90;;;;;;5057952;28;20044;-71
2021/10/22 00:47:01;;;;;;;10.23;4.47;;;16.90;99.90;;;;;;5052474;28;20506;-71
2021/10/22 00:50:05;;;;;;;7.07;4.03;;;16.70;99.90;;;;;;5066202;28;20042;-72
2021/10/22 00:53:11;;;;;;;8.88;4.03;;;16.50;99.90;;;;;;5058823;28;20044;-71
2021/10/22 00:56:16;;;;;;;11.75;4.53;;;16.50;99.90;;;;;;5062019;28;20044;-71
2021/10/22 00:59:20;;;;;;;7.43;4.30;;;16.60;99.90;;;;;;5051967;28;20048;-71
2021/10/22 01:02:25;;;;;;;9.95;4.97;;;16.60;99.90;;;;;;5064344;28;20490;-71
2021/10/22 01:05:30;;;;;;;9.05;4.28;;;16.60;99.90;;;;;;5057654;28;20047;-71
2021/10/22 01:08:35;;;;;;;10.75;4.65;;;16.30;99.90;;;;;;5059629;28;20584;-71
2021/10/22 01:11:40;;;;;;;9.45;4.25;;;16.20;99.90;;;;;;5066350;28;20043;-71
2021/10/22 01:14:47;;;;;;;9.60;4.75;;;16.10;99.90;;;;;;5065025;28;20043;-71
2021/10/22 01:17:51;;;;;;;17.67;4.82;;;15.90;99.90;;;;;;5058987;28;20039;-71
2021/10/22 01:21:00;;;;;;;8.82;5.07;;;15.70;99.90;;;;;;5064186;28;20047;-71
2021/10/22 01:24:04;;;;;;;12.50;5.60;;;15.50;99.90;;;;;;5060997;28;20055;-71
2021/10/22 01:27:08;;;;;;;11.68;5.57;;;15.50;99.90;;;;;;5059728;28;20048;-71
2021/10/22 01:30:15;;;;;;;17.40;6.10;;;15.50;99.90;;;;;;5059836;28;20530;-71
2021/10/22 01:33:20;;;;;;;18.55;6.05;;;15.50;99.90;;;;;;5058125;28;20044;-71
2021/10/22 01:36:26;;;;;;;16.33;6.75;;;15.50;99.90;;;;;;5054903;28;20040;-71
2021/10/22 01:39:30;;;;;;;11.35;5.70;;;15.60;99.90;;;;;;5064444;28;20040;-71
2021/10/22 01:42:35;;;;;;;10.95;5.80;;;15.60;99.90;;;;;;5064441;28;20043;-71
2021/10/22 01:45:39;;;;;;;11.18;5.68;;;15.60;99.90;;;;;;5053366;28;20063;-71
2021/10/22 01:48:43;;;;;;;15.90;9.50;;;15.60;99.90;;;;;;5059289;28;20395;-71
2021/10/22 01:51:47;;;;;;;12.20;7.93;;;15.50;99.90;;;;;;5058860;28;20044;-71
2021/10/22 01:54:51;;;;;;;16.27;7.45;;;15.40;99.90;;;;;;5059188;28;20051;-71
2021/10/22 01:57:56;;;;;;;15.45;8.93;;;15.40;99.90;;;;;;5065265;28;20040;-71
2021/10/22 02:01:00;;;;;;;19.42;8.88;;;15.20;99.90;;;;;;5064927;28;20039;-71
2021/10/22 02:04:06;;;;;;;15.07;7.70;;;15.10;99.90;;;;;;5060011;28;20043;-71
2021/10/22 02:07:10;;;;;;;15.63;9.30;;;15.10;99.90;;;;;;5057181;28;20040;-71
2021/10/22 02:10:14;;;;;;;18.17;9.93;;;15.20;99.90;;;;;;5068847;28;20055;-71
2021/10/22 02:13:18;;;;;;;16.15;8.10;;;15.20;99.90;;;;;;5064697;28;20043;-71
2021/10/22 02:16:22;;;;;;;15.48;8.90;;;15.30;99.90;;;;;;5059080;28;20051;-71
2021/10/22 02:19:26;;;;;;;15.32;8.55;;;15.30;99.90;;;;;;5063970;28;20040;-71
2021/10/22 02:22:31;;;;;;;14.45;8.15;;;15.30;99.90;;;;;;5065180;28;20414;-71
2021/10/22 02:25:36;;;;;;;19.23;8.75;;;15.20;99.90;;;;;;5057201;28;20806;-71
2021/10/22 02:28:40;;;;;;;19.27;8.93;;;15.20;99.90;;;;;;5068914;28;20043;-71
2021/10/22 02:31:44;;;;;;;14.95;7.85;;;15.20;99.90;;;;;;5052186;28;20040;-71
2021/10/22 02:34:49;;;;;;;15.07;7.22;;;15.20;99.90;;;;;;5064271;28;20490;-71
2021/10/22 02:37:53;;;;;;;18.00;7.07;;;15.30;99.90;;;;;;5068790;28;20328;-71
2021/10/22 02:40:57;;;;;;;10.93;6.05;;;15.40;99.90;;;;;;5058882;28;20383;-71
2021/10/22 02:44:01;;;;;;;11.90;6.78;;;15.60;99.90;;;;;;5060610;28;20052;-71
2021/10/22 02:47:05;;;;;;;13.50;7.15;;;15.70;99.90;;;;;;5055116;28;20491;-71
2021/10/22 02:50:10;;;;;;;15.23;8.05;;;15.90;99.90;;;;;;5064317;28;20048;-71
2021/10/22 02:53:15;;;;;;;15.60;7.18;;;16.00;99.90;;;;;;5060465;28;20043;-71
2021/10/22 02:56:19;;;;;;;13.40;7.10;;;16.20;99.90;;;;;;5060372;28;20043;-71
2021/10/22 02:59:24;;;;;;;15.73;6.40;;;16.40;99.90;;;;;;5060574;28;20044;-71
2021/10/22 03:02:28;;;;;;;19.13;7.10;;;16.40;99.90;;;;;;5065720;28;20043;-71
2021/10/22 03:05:33;;;;;;;14.63;7.85;;;16.20;99.90;;;;;;5069632;28;20048;-71
2021/10/22 03:08:37;;;;;;;22.75;8.90;;;15.90;99.90;;;;;;5064366;28;20055;-71
2021/10/22 03:11:41;;;;;;;23.17;8.48;;;15.90;99.90;;;;;;5066561;28;20375;-71
2021/10/22 03:14:45;;;;;;;14.23;7.78;;;15.80;99.90;;;;;;5063016;28;20497;-71
2021/10/22 03:17:49;;;;;;;14.48;8.30;;;15.60;99.90;;;;;;5067367;28;20027;-71
2021/10/22 03:20:53;;;;;;;21.17;9.93;;;15.60;99.90;;;;;;5064142;28;20047;-71
2021/10/22 03:23:57;;;;;;;15.85;8.38;;;15.50;99.90;;;;;;5062264;28;20052;-71
2021/10/22 03:27:04;;;;;;;20.92;9.70;;;15.40;99.90;;;;;;5069269;28;20394;-71
2021/10/22 03:30:09;;;;;;;17.67;8.43;;;15.40;99.90;;;;;;5059770;28;20123;-72
2021/10/22 03:33:15;;;;;;;16.50;8.80;;;15.50;99.90;;;;;;5061240;28;20039;-72
2021/10/22 03:36:19;;;;;;;18.17;8.77;;;15.40;99.90;;;;;;5059379;28;20368;-71
2021/10/22 03:39:23;;;;;;;22.65;10.02;;;15.40;99.90;;;;;;5067125;28;20047;-72
2021/10/22 03:42:29;;;;;;;17.08;9.90;;;15.30;99.90;;;;;;5061493;28;20388;-71
2021/10/22 03:45:33;;;;;;;25.52;11.30;;;15.30;99.90;;;;;;5058669;28;20040;-72
2021/10/22 03:48:38;;;;;;;24.48;10.20;;;15.30;99.90;;;;;;5051312;28;20052;-71
2021/10/22 03:51:42;;;;;;;14.15;8.38;;;15.30;99.90;;;;;;5056146;28;20048;-71
2021/10/22 03:54:46;;;;;;;26.58;10.27;;;15.30;99.90;;;;;;5052515;28;20044;-71
2021/10/22 03:57:51;;;;;;;17.00;9.02;;;15.30;99.90;;;;;;5071642;28;20052;-72
2021/10/22 04:00:55;;;;;;;15.93;10.10;;;15.30;99.90;;;;;;5066531;28;20048;-71
2021/10/22 04:03:59;;;;;;;22.10;11.85;;;15.30;99.90;;;;;;5064586;28;20048;-71
2021/10/22 04:07:04;;;;;;;19.85;10.25;;;15.30;99.90;;;;;;5071291;28;20386;-71
2021/10/22 04:10:08;;;;;;;16.67;10.77;;;15.40;99.90;;;;;;5050783;28;20400;-71
2021/10/22 04:13:13;;;;;;;20.48;11.60;;;15.30;99.90;;;;;;5061092;28;20031;-71
2021/10/22 04:16:18;;;;;;;24.70;10.63;;;15.30;99.90;;;;;;5070753;28;20051;-71
2021/10/22 04:19:22;;;;;;;20.90;11.07;;;15.30;99.90;;;;;;5063507;28;20043;-71
2021/10/22 04:22:27;;;;;;;19.90;11.35;;;15.20;99.90;;;;;;5054496;28;20044;-71
2021/10/22 04:25:31;;;;;;;26.85;12.50;;;15.10;99.90;;;;;;5059579;28;20498;-71
2021/10/22 04:28:35;;;;;;;28.00;12.88;;;15.00;99.90;;;;;;5065719;28;20039;-72
2021/10/22 04:31:39;;;;;;;25.90;12.35;;;14.90;99.90;;;;;;5056777;28;20036;-71
2021/10/22 04:34:44;;;;;;;19.30;12.02;;;15.00;99.90;;;;;;5065380;28;20138;-71
2021/10/22 04:41:03;;;;;;;28.23;11.50;;;15.30;99.90;;;;;;5062661;28;20043;-71
2021/10/22 04:44:07;;;;;;;26.77;11.38;;;15.40;99.90;;;;;;5063054;28;20052;-71
2021/10/22 04:47:11;;;;;;;22.25;11.88;;;15.60;99.90;;;;;;5062566;28;20044;-71
2021/10/22 04:50:15;;;;;;;22.70;10.50;;;15.70;99.90;;;;;;5060980;28;20063;-71
2021/10/22 04:53:26;;;;;;;25.20;11.57;;;15.70;99.90;;;;;;5058653;28;20482;-72
2021/10/22 04:56:30;;;;;;;25.38;12.15;;;15.80;99.90;;;;;;5065193;28;20047;-71
2021/10/22 04:59:34;;;;;;;20.42;11.18;;;15.80;99.90;;;;;;5065804;28;20395;-72
2021/10/22 05:02:38;;;;;;;19.15;10.35;;;15.70;99.90;;;;;;5064214;28;20040;-71
2021/10/22 05:05:42;;;;;;;21.58;10.88;;;15.60;99.90;;;;;;5059870;28;20051;-71
2021/10/22 05:08:46;;;;;;;21.52;12.07;;;15.60;99.90;;;;;;5066574;28;20055;-71
2021/10/22 05:11:50;;;;;;;25.77;11.60;;;15.50;99.90;;;;;;5056563;28;20043;-72
2021/10/22 05:14:54;;;;;;;18.50;10.73;;;15.40;99.90;;;;;;5065886;28;20059;-71
2021/10/22 05:17:58;;;;;;;23.08;10.48;;;15.50;99.90;;;;;;5066160;28;20044;-72
2021/10/22 05:21:05;;;;;;;19.35;11.15;;;15.50;99.90;;;;;;5062558;28;20052;-71
2021/10/22 05:24:10;;;;;;;24.25;10.80;;;15.50;99.90;;;;;;5063949;28;20060;-71
2021/10/22 05:27:14;;;;;;;26.70;11.30;;;15.50;99.90;;;;;;5058611;28;20040;-72
2021/10/22 05:30:18;;;;;;;20.25;11.15;;;15.50;99.90;;;;;;5062064;28;20052;-72
2021/10/22 05:33:22;;;;;;;20.70;11.23;;;15.40;99.90;;;;;;5060333;28;20039;-71
2021/10/22 05:36:26;;;;;;;21.50;11.85;;;15.60;99.90;;;;;;5064653;28;20044;-71
2021/10/22 05:39:31;;;;;;;22.65;11.65;;;15.70;99.90;;;;;;5063796;28;20036;-71
2021/10/22 05:42:35;;;;;;;21.73;10.95;;;15.90;99.90;;;;;;5057156;28;20044;-72
2021/10/22 05:45:39;;;;;;;21.98;10.68;;;15.90;99.90;;;;;;5065594;28;20043;-72
2021/10/22 05:48:45;;;;;;;18.70;11.73;;;15.90;99.90;;;;;;5064423;28;20031;-72
2021/10/22 05:51:51;;;;;;;23.27;11.48;;;15.70;99.90;;;;;;5065430;28;20402;-72
2021/10/22 05:54:55;;;;;;;23.75;12.55;;;15.60;99.90;;;;;;5066555;28;20048;-72
2021/10/22 05:57:59;;;;;;;22.83;13.43;;;15.50;99.90;;;;;;5062159;28;20047;-72
2021/10/22 06:01:03;;;;;;;24.13;13.18;;;15.50;99.90;;;;;;5053715;28;20486;-72
2021/10/22 06:04:08;;;;;;;28.38;14.45;;;15.50;99.90;;;;;;5063636;28;20182;-72
2021/10/22 06:07:12;;;;;;;31.83;15.88;;;15.50;99.90;;;;;;5060924;28;20043;-72
2021/10/22 06:10:16;;;;;;;31.30;15.50;;;15.50;99.90;;;;;;5061602;28;20051;-72
2021/10/22 06:13:21;;;;;;;29.02;15.98;;;15.60;99.90;;;;;;5068594;28;20043;-72
2021/10/22 06:16:25;;;;;;;26.27;16.15;;;15.60;99.90;;;;;;5062477;28;20044;-73
2021/10/22 06:19:34;;;;;;;33.05;17.75;;;15.50;99.90;;;;;;5058411;28;20048;-72
2021/10/22 06:26:02;;;;;;;34.80;18.63;;;15.40;99.90;;;;;;5065800;28;20044;-72
2021/10/22 06:29:07;;;;;;;35.70;18.77;;;15.40;99.90;;;;;;5067755;28;20035;-73
2021/10/22 06:32:11;;;;;;;34.63;19.65;;;15.30;99.90;;;;;;5063059;28;20035;-72
2021/10/22 06:35:15;;;;;;;39.20;19.60;;;15.30;99.90;;;;;;5063244;28;20036;-73
2021/10/22 06:38:19;;;;;;;40.05;21.42;;;15.20;99.90;;;;;;5069430;28;20039;-72
2021/10/22 06:41:24;;;;;;;48.10;22.67;;;15.10;99.90;;;;;;5064676;28;20059;-72
2021/10/22 06:44:28;;;;;;;42.58;24.10;;;15.10;99.90;;;;;;5067198;28;20063;-72
2021/10/22 06:47:32;;;;;;;42.95;24.60;;;15.10;99.90;;;;;;5072437;28;20047;-72
2021/10/22 06:50:36;;;;;;;46.08;26.05;;;15.10;99.90;;;;;;5064615;28;20103;-72
2021/10/22 06:53:41;;;;;;;48.22;27.23;;;14.90;99.90;;;;;;5065260;28;20495;-73
2021/10/22 06:56:45;;;;;;;55.45;28.50;;;14.80;99.90;;;;;;5062608;28;20301;-72
2021/10/22 06:59:49;;;;;;;63.38;28.90;;;14.80;99.90;;;;;;5067762;28;20035;-72
2021/10/22 07:02:54;;;;;;;51.42;27.85;;;14.80;99.90;;;;;;5063787;28;20059;-72
2021/10/22 07:09:03;;;;;;;49.10;27.70;;;14.80;99.90;;;;;;5065152;28;20561;-72
2021/10/22 07:12:08;;;;;;;49.47;29.08;;;14.80;99.90;;;;;;5062158;28;20051;-72
2021/10/22 07:15:12;;;;;;;72.03;32.33;;;14.70;99.90;;;;;;5057525;28;20055;-72
2021/10/22 07:18:17;;;;;;;61.15;34.28;;;14.70;99.90;;;;;;5064561;28;20410;-72
2021/10/22 07:21:21;;;;;;;62.67;31.08;;;14.70;99.90;;;;;;5052611;28;20116;-73
2021/10/22 07:24:25;;;;;;;51.33;25.63;;;14.80;99.90;;;;;;5067524;28;20048;-73
2021/10/22 07:27:29;;;;;;;43.80;23.30;;;15.00;99.90;;;;;;5064505;28;20040;-74
2021/10/22 07:30:34;;;;;;;31.25;17.27;;;15.00;99.90;;;;;;5059780;28;20040;-73
2021/10/22 07:33:42;;;;;;;25.42;16.55;;;15.10;99.90;;;;;;5068468;28;20059;-73
2021/10/22 07:36:48;;;;;;;20.65;12.57;;;15.10;99.90;;;;;;5060467;28;20040;-72
2021/10/22 07:39:52;;;;;;;24.45;14.10;;;15.10;99.90;;;;;;5062924;28;20039;-72
2021/10/22 07:42:56;;;;;;;16.92;11.07;;;15.10;99.90;;;;;;5068353;28;20035;-72
2021/10/22 07:46:00;;;;;;;18.15;11.93;;;15.10;99.90;;;;;;5069241;28;20048;-72
2021/10/22 07:49:05;;;;;;;16.08;9.10;;;15.10;99.90;;;;;;5059464;28;20036;-72
2021/10/22 07:52:11;;;;;;;14.80;9.23;;;15.10;99.90;;;;;;5061171;28;20036;-71
2021/10/22 07:55:16;;;;;;;13.40;9.30;;;15.10;99.90;;;;;;5061895;28;20047;-73
2021/10/22 07:58:20;;;;;;;14.32;8.95;;;15.00;99.90;;;;;;5064136;28;20059;-72
2021/10/22 08:01:24;;;;;;;13.23;8.95;;;14.90;99.90;;;;;;5060111;28;20487;-71
2021/10/22 08:04:29;;;;;;;14.48;8.10;;;14.90;99.90;;;;;;5061421;28;20043;-72
2021/10/22 08:07:37;;;;;;;11.40;7.45;;;14.80;99.90;;;;;;5063339;28;20044;-72
2021/10/22 08:10:42;;;;;;;11.15;7.00;;;14.80;99.90;;;;;;5061495;28;20043;-72
2021/10/22 08:13:46;;;;;;;17.60;7.40;;;14.70;99.90;;;;;;5068846;28;20044;-72
2021/10/22 08:16:50;;;;;;;11.00;5.57;;;14.60;99.90;;;;;;5060046;28;20490;-72
2021/10/22 08:33:53;;;;;;;2.60;2.05;;;14.40;99.90;;;;;;5063513;28;20441;-72
2021/10/22 08:36:57;;;;;;;3.67;2.13;;;14.30;99.90;;;;;;5067418;28;20051;-72
2021/10/22 08:40:04;;;;;;;2.95;1.52;;;14.20;99.90;;;;;;5065697;28;20047;-72
2021/10/22 08:43:08;;;;;;;7.50;2.58;;;14.00;99.90;;;;;;5068480;28;20024;-72
2021/10/22 08:46:17;;;;;;;3.08;2.10;;;13.90;99.90;;;;;;5059569;28;20418;-72
2021/10/22 08:49:22;;;;;;;3.40;2.28;;;13.90;99.90;;;;;;5065657;28;20379;-73
2021/10/22 08:52:30;;;;;;;4.53;2.53;;;13.90;99.90;;;;;;5067678;28;20055;-73
2021/10/22 08:55:34;;;;;;;3.72;2.70;;;13.90;99.90;;;;;;5065680;28;20060;-73
2021/10/22 08:58:40;;;;;;;5.88;3.20;;;13.90;99.90;;;;;;5065099;28;20039;-73
2021/10/22 09:02:17;;;;;;;4.03;2.83;;;14.00;99.90;;;;;;5065331;28;20043;-72
2021/10/22 09:05:26;;;;;;;5.75;3.45;;;14.20;99.90;;;;;;5066461;28;20044;-72
2021/10/22 09:08:33;;;;;;;5.10;3.60;;;14.30;99.90;;;;;;5065255;28;20044;-72
2021/10/22 09:11:47;;;;;;;8.25;4.32;;;14.40;99.90;;;;;;5060955;28;20044;-72
2021/10/22 09:14:58;;;;;;;7.15;3.47;;;14.60;99.90;;;;;;5061141;28;20043;-72
2021/10/22 09:18:13;;;;;;;5.50;3.70;;;14.80;99.90;;;;;;5064029;28;20048;-73
2021/10/22 09:21:28;;;;;;;6.53;3.63;;;14.90;99.90;;;;;;5065828;28;20043;-72
2021/10/22 09:24:33;;;;;;;7.60;4.00;;;15.20;99.90;;;;;;5066518;28;20047;-72
2021/10/22 09:27:42;;;;;;;6.50;4.07;;;15.40;99.90;;;;;;5063291;28;20041;-73
2021/10/22 09:30:47;;;;;;;8.18;4.35;;;15.60;99.90;;;;;;5059388;28;20043;-72
2021/10/22 09:33:58;;;;;;;7.53;5.10;;;15.80;99.90;;;;;;5059944;28;20067;-73
2021/10/22 09:37:09;;;;;;;7.43;5.43;;;15.80;99.90;;;;;;5059354;28;20569;-73
2021/10/22 09:40:13;;;;;;;17.83;10.75;;;15.80;99.90;;;;;;5057991;28;20036;-72
2021/10/22 09:43:35;;;;;;;13.85;10.85;;;15.90;99.90;;;;;;5067730;28;20490;-72
2021/10/22 09:46:39;;;;;;;19.85;13.20;;;15.90;99.90;;;;;;5071094;28;20047;-73
2021/10/22 09:49:53;;;;;;;18.13;11.90;;;16.00;99.90;;;;;;5063364;28;20044;-73
2021/10/22 09:53:16;;;;;;;17.15;11.23;;;16.10;99.90;;;;;;5062762;28;20036;-73
2021/10/22 09:56:23;;;;;;;16.33;11.45;;;16.20;99.90;;;;;;5069954;28;20036;-72
2021/10/22 09:59:28;;;;;;;18.67;13.10;;;16.20;99.90;;;;;;5063187;28;20040;-72
2021/10/22 10:02:35;;;;;;;23.08;13.57;;;16.00;99.90;;;;;;5066951;28;20513;-72
2021/10/22 10:05:39;;;;;;;22.42;15.80;;;16.00;99.90;;;;;;5061237;28;20043;-72
2021/10/22 10:08:43;;;;;;;19.65;14.43;;;15.80;99.90;;;;;;5061493;28;20391;-72
2021/10/22 10:11:49;;;;;;;24.63;17.35;;;15.90;99.90;;;;;;5059779;28;20040;-72
2021/10/22 10:14:53;;;;;;;17.30;12.35;;;15.90;99.90;;;;;;5068289;28;20063;-72
2021/10/22 10:18:00;;;;;;;15.93;11.30;;;15.90;99.90;;;;;;5068475;28;20039;-72
2021/10/22 10:21:07;;;;;;;13.88;10.35;;;15.90;99.90;;;;;;5067567;28;20044;-72
2021/10/22 10:24:14;;;;;;;14.30;10.45;;;15.90;99.90;;;;;;5066696;28;20047;-72
2021/10/22 10:27:21;;;;;;;11.65;8.10;;;16.00;99.90;;;;;;5061802;28;20044;-72
2021/10/22 10:30:34;;;;;;;9.18;6.68;;;16.40;99.90;;;;;;5066008;28;20063;-72
2021/10/22 10:33:38;;;;;;;6.63;4.63;;;17.90;99.90;;;;;;5064281;28;20036;-72
2021/10/22 10:36:52;;;;;;;6.97;4.18;;;20.50;99.90;;;;;;5069352;28;20391;-72
2021/10/22 10:39:58;;;;;;;8.07;4.82;;;20.70;99.90;;;;;;5063395;28;20047;-71
2021/10/22 10:43:05;;;;;;;9.25;5.32;;;18.70;99.90;;;;;;5062465;28;20039;-71
2021/10/22 10:46:32;;;;;;;7.97;6.30;;;17.70;99.90;;;;;;5067427;28;20063;-72
2021/10/22 10:49:46;;;;;;;10.63;7.20;;;16.80;99.90;;;;;;5069575;28;20043;-72
2021/10/22 10:52:55;;;;;;;8.45;6.78;;;16.50;99.90;;;;;;5068001;28;20039;-71
2021/10/22 10:56:04;;;;;;;9.68;7.55;;;16.40;99.90;;;;;;5066197;28;20091;-72
2021/10/22 10:59:09;;;;;;;11.52;6.95;;;16.80;99.90;;;;;;5068966;28;20048;-72
2021/10/22 11:02:15;;;;;;;8.88;6.90;;;16.60;99.90;;;;;;5064761;28;20043;-71
2021/10/22 11:05:45;;;;;;;10.18;6.57;;;17.30;99.90;;;;;;5061362;28;20044;-71
2021/10/22 11:08:50;;;;;;;8.30;5.80;;;18.10;99.90;;;;;;5065400;28;20039;-71
2021/10/22 11:12:00;;;;;;;9.45;6.40;;;18.10;99.90;;;;;;5066407;28;20398;-71
2021/10/22 11:15:05;;;;;;;6.95;5.72;;;17.60;99.90;;;;;;5063781;28;20040;-72
2021/10/22 11:18:12;;;;;;;16.48;5.45;;;18.10;99.90;;;;;;5057929;28;20036;-72
2021/10/22 11:21:16;;;;;;;6.88;3.92;;;19.60;99.90;;;;;;5066337;28;20490;-72
2021/10/22 11:24:30;;;;;;;4.13;3.53;;;20.90;99.90;;;;;;5067439;28;20044;-72
2021/10/22 11:27:35;;;;;;;4.47;3.38;;;21.40;99.90;;;;;;5064744;28;20048;-72
2021/10/22 11:30:54;;;;;;;4.78;3.00;;;19.80;99.90;;;;;;5066983;28;20383;-71
2021/10/22 11:33:58;;;;;;;3.13;2.20;;;23.80;99.90;;;;;;5070244;28;20107;-71
2021/10/22 11:37:11;;;;;;;6.38;2.72;;;27.30;99.90;;;;;;5064924;28;20553;-72
2021/10/22 11:40:15;;;;;;;3.97;2.90;;;26.20;99.90;;;;;;5065102;28;20043;-72
2021/10/22 11:43:20;;;;;;;6.40;4.68;;;25.00;99.90;;;;;;5071736;28;20494;-72
2021/10/22 11:46:24;;;;;;;3.40;2.90;;;22.80;99.90;;;;;;5059122;28;20048;-72
2021/10/22 11:49:31;;;;;;;3.78;2.28;;;22.30;99.90;;;;;;5063244;28;20241;-71
2021/10/22 11:52:35;;;;;;;2.83;1.88;;;22.50;99.90;;;;;;5059411;28;20036;-72
2021/10/22 11:55:42;;;;;;;3.08;2.40;;;23.30;99.90;;;;;;5064658;28;20045;-71
2021/10/22 11:58:48;;;;;;;3.67;2.05;;;23.60;99.90;;;;;;5062689;28;20047;-72
2021/10/22 12:01:52;;;;;;;3.60;1.83;;;25.50;99.90;;;;;;5068169;28;20020;-72
2021/10/22 12:05:00;;;;;;;3.95;1.52;;;27.70;99.90;;;;;;5062383;28;20050;-72
2021/10/22 12:08:04;;;;;;;4.32;2.30;;;28.50;98.10;;;;;;5064078;28;20209;-72
2021/10/22 12:11:09;;;;;;;2.83;2.40;;;25.60;99.60;;;;;;5064834;28;20060;-71
2021/10/22 12:14:16;;;;;;;4.90;3.17;;;22.70;99.90;;;;;;5062051;28;20043;-71
2021/10/22 12:17:26;;;;;;;6.22;3.00;;;22.80;99.90;;;;;;5061613;28;20044;-71
2021/10/22 12:20:33;;;;;;;3.42;2.40;;;21.30;99.90;;;;;;5066075;28;20128;-71
2021/10/22 12:23:39;;;;;;;3.60;2.30;;;23.60;99.90;;;;;;5066467;28;20051;-71
2021/10/22 12:26:43;;;;;;;2.17;1.85;;;24.00;99.90;;;;;;5063682;28;20051;-70
2021/10/22 12:29:58;;;;;;;3.60;1.73;;;27.00;99.90;;;;;;5068599;28;20052;-72
2021/10/22 12:33:05;;;;;;;5.85;2.92;;;29.20;97.70;;;;;;5065712;28;20394;-72
2021/10/22 12:36:16;;;;;;;3.40;2.13;;;28.60;97.20;;;;;;5061189;28;20039;-72
2021/10/22 12:39:26;;;;;;;3.35;1.83;;;29.90;95.50;;;;;;5059759;28;20383;-71
2021/10/22 12:42:31;;;;;;;6.63;2.50;;;28.90;93.90;;;;;;5062976;28;20043;-72
2021/10/22 12:46:00;;;;;;;3.50;2.00;;;25.10;98.80;;;;;;5061101;28;20047;-71
2021/10/22 12:49:07;;;;;;;2.78;2.00;;;24.20;99.90;;;;;;5065013;28;20055;-71
2021/10/22 12:52:16;;;;;;;3.45;1.80;;;22.70;99.90;;;;;;5065422;28;20039;-71
2021/10/22 12:55:22;;;;;;;5.15;1.55;;;24.40;99.90;;;;;;5055224;28;20044;-72
2021/10/22 12:58:27;;;;;;;5.38;2.33;;;26.70;99.70;;;;;;5059116;28;20043;-71
2021/10/22 13:01:36;;;;;;;8.43;2.70;;;24.60;99.90;;;;;;5060352;28;20137;-71
2021/10/22 13:04:40;;;;;;;4.85;2.08;;;24.10;99.90;;;;;;5062572;28;20387;-72
2021/10/22 13:08:34;;;;;;;4.47;2.10;;;24.60;99.90;;;;;;5057060;28;20052;-71
2021/10/22 13:21:45;;;;;;;5.25;2.33;;;22.90;99.90;;;;;;5065280;28;20481;-71
2021/10/22 13:24:56;;;;;;;2.97;1.90;;;23.10;99.90;;;;;;5061643;28;20047;-71
2021/10/22 13:28:00;;;;;;;3.80;2.25;;;24.40;99.90;;;;;;5067438;28;20039;-71
2021/10/22 13:31:09;;;;;;;3.45;1.77;;;24.70;99.90;;;;;;5064745;28;20040;-71
2021/10/22 13:34:13;;;;;;;4.40;2.35;;;25.20;99.90;;;;;;5055874;28;20048;-71
2021/10/22 13:37:21;;;;;;;3.63;2.38;;;26.20;99.90;;;;;;5061656;28;20051;-72
2021/10/22 13:40:26;;;;;;;9.27;2.72;;;23.70;99.90;;;;;;5060530;28;20035;-72
2021/10/22 13:43:30;;;;;;;8.13;2.95;;;24.60;99.90;;;;;;5065311;28;20043;-72
2021/10/22 13:46:35;;;;;;;6.95;2.30;;;25.10;99.90;;;;;;5061041;28;20051;-72
2021/10/22 13:49:40;;;;;;;3.90;2.35;;;25.50;99.90;;;;;;5056698;28;20047;-71
2021/10/22 13:52:44;;;;;;;6.47;3.10;;;26.70;99.50;;;;;;5058029;28;20550;-72
2021/10/22 13:55:50;;;;;;;4.93;3.28;;;24.60;99.90;;;;;;5057874;28;20044;-71
2021/10/22 13:58:55;;;;;;;4.28;2.40;;;23.00;99.90;;;;;;5064169;28;20075;-72
2021/10/22 14:01:59;;;;;;;5.55;2.50;;;23.40;99.90;;;;;;5058684;28;20048;-72
2021/10/22 14:05:04;;;;;;;3.40;2.28;;;23.10;99.90;;;;;;5058195;28;20052;-72
2021/10/22 14:08:08;;;;;;;2.67;2.42;;;23.50;99.90;;;;;;5057666;28;20051;-71
2021/10/22 14:11:16;;;;;;;5.03;2.47;;;23.50;99.90;;;;;;5058047;28;20044;-72
2021/10/22 14:24:11;;;;;;;7.55;2.88;;;25.00;99.90;;;;;;5059092;28;20044;-72
2021/10/22 14:30:39;;;;;;;6.13;2.42;;;25.10;99.90;;;;;;5062046;28;20032;-72
2021/10/22 14:33:43;;;;;;;3.05;2.10;;;23.60;99.90;;;;;;5060532;28;20496;-72
2021/10/22 14:36:47;;;;;;;4.03;2.30;;;23.90;99.90;;;;;;5065454;28;20391;-72
2021/10/22 14:39:51;;;;;;;5.72;2.60;;;23.40;99.90;;;;;;5062321;28;20491;-71
2021/10/22 14:42:55;;;;;;;3.28;2.17;;;22.30;99.90;;;;;;5068038;28;20036;-72
2021/10/22 14:46:13;;;;;;;6.65;2.08;;;22.70;99.90;;;;;;5062987;28;20076;-72
2021/10/22 14:49:22;;;;;;;5.18;2.00;;;23.00;99.90;;;;;;5063817;28;20048;-72
2021/10/22 14:52:39;;;;;;;3.08;2.25;;;22.90;99.90;;;;;;5059097;28;20040;-72
2021/10/22 14:55:48;;;;;;;5.15;1.90;;;21.90;99.90;;;;;;5066554;28;20481;-71
2021/10/22 14:58:57;;;;;;;4.53;2.20;;;21.50;99.90;;;;;;5063052;28;20055;-71
2021/10/22 15:02:10;;;;;;;5.53;2.03;;;21.10;99.90;;;;;;5062147;28;20040;-71
2021/10/22 15:05:15;;;;;;;4.07;2.55;;;21.30;99.90;;;;;;5070975;28;20067;-71
2021/10/22 15:08:20;;;;;;;6.35;2.80;;;20.00;99.90;;;;;;5061936;28;20077;-71
2021/10/22 15:11:24;;;;;;;4.70;2.63;;;19.80;99.90;;;;;;5061688;28;20086;-71
2021/10/22 15:14:29;;;;;;;8.85;2.80;;;19.50;99.90;;;;;;5063624;28;20063;-72
2021/10/22 15:17:35;;;;;;;5.93;2.70;;;19.30;99.90;;;;;;5061369;28;20051;-71
2021/10/22 15:20:40;;;;;;;5.57;2.95;;;19.50;99.90;;;;;;5066989;28;20036;-71
2021/10/22 15:23:44;;;;;;;4.57;2.88;;;19.50;99.90;;;;;;5063227;28;20104;-72
2021/10/22 15:26:48;;;;;;;5.55;2.95;;;19.50;99.90;;;;;;5066904;28;20103;-71
2021/10/22 15:29:53;;;;;;;5.72;3.20;;;19.10;99.90;;;;;;5060533;28;20044;-71
2021/10/22 15:32:58;;;;;;;6.75;3.10;;;19.00;99.90;;;;;;5060172;28;20055;-71
2021/10/22 15:36:04;;;;;;;6.88;4.35;;;18.90;99.90;;;;;;5063337;28;20044;-71
2021/10/22 15:39:08;;;;;;;8.57;3.95;;;18.50;99.90;;;;;;5067196;28;20054;-71
2021/10/22 15:42:13;;;;;;;9.52;4.22;;;18.30;99.90;;;;;;5065304;28;20276;-71
2021/10/22 15:45:17;;;;;;;7.93;4.47;;;17.90;99.90;;;;;;5064744;28;20502;-71
2021/10/22 15:48:21;;;;;;;8.30;4.50;;;17.80;99.90;;;;;;5064523;28;20051;-71
2021/10/22 15:51:25;;;;;;;8.32;5.45;;;17.60;99.90;;;;;;5067268;28;20055;-71
2021/10/22 15:54:29;;;;;;;6.32;4.88;;;17.50;99.90;;;;;;5066141;28;20044;-71
2021/10/22 15:57:35;;;;;;;7.55;5.45;;;17.30;99.90;;;;;;5059310;28;20040;-71
2021/10/22 16:00:40;;;;;;;12.32;5.68;;;17.20;99.90;;;;;;5066012;28;20586;-71
2021/10/22 16:03:46;;;;;;;12.40;5.70;;;17.20;99.90;;;;;;5066008;28;20501;-71
2021/10/22 16:10:05;;;;;;;7.90;5.57;;;17.00;99.90;;;;;;5063815;28;20048;-71
2021/10/22 16:13:13;;;;;;;7.47;5.10;;;17.00;99.90;;;;;;5061707;28;20040;-71
2021/10/22 16:16:29;;;;;;;10.15;5.35;;;16.90;99.90;;;;;;5059313;28;20369;-71
2021/10/22 16:19:34;;;;;;;8.70;5.30;;;16.90;99.90;;;;;;5054409;28;20040;-71
2021/10/22 16:22:39;;;;;;;10.02;5.93;;;16.80;99.90;;;;;;5066508;28;20048;-71
2021/10/22 16:25:43;;;;;;;7.78;5.40;;;16.70;99.90;;;;;;5056568;28;20067;-71
2021/10/22 16:28:47;;;;;;;14.93;7.20;;;16.60;99.90;;;;;;5063392;28;20039;-71
2021/10/22 16:31:53;;;;;;;10.57;6.68;;;16.50;99.90;;;;;;5065374;28;20055;-71
2021/10/22 16:38:21;;;;;;;12.65;6.38;;;16.40;99.90;;;;;;5063951;28;20036;-71
2021/10/22 16:41:27;;;;;;;12.32;6.22;;;16.30;99.90;;;;;;5058458;28;20503;-71
2021/10/22 16:44:33;;;;;;;14.50;7.57;;;16.20;99.90;;;;;;5063945;28;20056;-71
2021/10/22 16:47:37;;;;;;;11.20;7.53;;;16.20;99.90;;;;;;5066205;28;20047;-71
2021/10/22 16:50:42;;;;;;;10.35;6.32;;;16.10;99.90;;;;;;5065003;28;20383;-71